createdAt,value
2018-04-14T00:00:23.206Z,5.20
2018-04-14T00:02:52.395Z,3.43
2018-04-14T00:05:21.220Z,4.13
2018-04-14T00:07:48.984Z,7.33
2018-04-14T00:10:16.755Z,3.77
2018-04-14T00:12:44.536Z,3.43
2018-04-14T00:15:12.423Z,3.80
2018-04-14T00:17:40.208Z,8.60
2018-04-14T00:20:07.984Z,4.30
2018-04-14T00:22:35.816Z,3.97
2018-04-14T00:25:04.124Z,7.20
2018-04-14T00:27:32.149Z,3.97
2018-04-14T00:30:00.840Z,3.40
2018-04-14T00:32:29.532Z,4.03
2018-04-14T00:34:57.851Z,3.37
2018-04-14T00:37:25.783Z,4.20
2018-04-14T00:39:54.332Z,4.60
2018-04-14T00:42:22.268Z,4.93
2018-04-14T00:44:50.124Z,4.87
2018-04-14T00:47:18.681Z,4.77
2018-04-14T00:49:47.298Z,4.90
2018-04-14T00:52:15.891Z,4.47
2018-04-14T00:54:44.609Z,3.90
2018-04-14T00:57:12.421Z,4.30
2018-04-14T00:59:40.868Z,5.63
2018-04-14T01:02:08.719Z,3.23
2018-04-14T01:04:36.536Z,3.07
2018-04-14T01:07:04.955Z,4.53
2018-04-14T01:09:34.397Z,5.30
2018-04-14T01:12:02.229Z,2.33
2018-04-14T01:14:31.130Z,4.13
2018-04-14T01:16:59.669Z,3.57
2018-04-14T01:19:27.224Z,4.40
2018-04-14T01:21:55.038Z,3.10
2018-04-14T01:24:22.877Z,3.87
2018-04-14T01:26:50.694Z,4.57
2018-04-14T01:29:19.331Z,2.90
2018-04-14T01:31:47.107Z,3.53
2018-04-14T01:34:14.912Z,3.80
2018-04-14T01:36:43.526Z,4.37
2018-04-14T01:39:12.114Z,3.33
2018-04-14T01:41:39.669Z,4.53
2018-04-14T01:44:08.189Z,4.20
2018-04-14T01:46:35.992Z,3.60
2018-04-14T01:49:04.623Z,3.63
2018-04-14T01:51:32.224Z,5.27
2018-04-14T01:53:59.995Z,4.13
2018-04-14T01:56:28.331Z,5.60
2018-04-14T01:58:56.925Z,6.37
2018-04-14T02:01:25.536Z,5.23
2018-04-14T02:03:53.356Z,2.77
2018-04-14T02:06:21.363Z,3.80
2018-04-14T02:08:49.139Z,4.70
2018-04-14T02:11:16.954Z,5.00
2018-04-14T02:13:44.770Z,4.00
2018-04-14T02:16:12.548Z,5.23
2018-04-14T02:18:40.093Z,3.50
2018-04-14T02:21:08.636Z,6.90
2018-04-14T02:23:36.412Z,3.90
2018-04-14T02:26:04.156Z,5.63
2018-04-14T02:28:31.763Z,4.93
2018-04-14T02:31:00.497Z,2.97
2018-04-14T02:33:28.742Z,4.67
2018-04-14T02:35:56.557Z,6.53
2018-04-14T02:38:24.360Z,6.53
2018-04-14T02:40:51.976Z,6.20
2018-04-14T02:43:20.004Z,4.53
2018-04-14T02:45:47.815Z,5.53
2018-04-14T02:48:16.363Z,4.13
2018-04-14T02:50:44.183Z,3.27
2018-04-14T02:53:11.961Z,3.37
2018-04-14T02:55:40.069Z,7.07
2018-04-14T02:58:07.890Z,3.87
2018-04-14T03:00:36.469Z,5.13
2018-04-14T03:03:05.019Z,4.70
2018-04-14T03:05:32.849Z,4.37
2018-04-14T03:08:00.696Z,4.60
2018-04-14T03:10:29.282Z,3.40
2018-04-14T03:12:58.454Z,3.33
2018-04-14T03:15:26.297Z,3.90
2018-04-14T03:17:53.843Z,4.33
2018-04-14T03:20:21.659Z,5.63
2018-04-14T03:22:49.937Z,4.03
2018-04-14T03:25:17.749Z,7.07
2018-04-14T03:27:46.407Z,6.57
2018-04-14T03:30:14.188Z,5.03
2018-04-14T03:32:42.065Z,5.67
2018-04-14T03:35:09.871Z,5.30
2018-04-14T03:37:37.709Z,4.07
2018-04-14T03:40:05.576Z,2.87
2018-04-14T03:42:33.356Z,5.67
2018-04-14T03:45:01.957Z,4.57
2018-04-14T03:47:30.532Z,4.40
2018-04-14T03:49:59.074Z,4.80
2018-04-14T03:52:26.920Z,6.10
2018-04-14T03:54:55.591Z,4.57
2018-04-14T03:57:23.152Z,6.17
2018-04-14T03:59:52.612Z,7.10
2018-04-14T04:02:21.273Z,5.27
2018-04-14T04:04:48.879Z,4.60
2018-04-14T04:07:16.688Z,6.80
2018-04-14T04:09:44.552Z,3.97
2018-04-14T04:12:12.866Z,6.87
2018-04-14T04:14:40.688Z,4.60
2018-04-14T04:17:08.465Z,5.03
2018-04-14T04:19:48.883Z,2.97
2018-04-14T04:22:28.489Z,3.07
2018-04-14T04:25:24.279Z,4.40
2018-04-14T04:27:52.891Z,4.50
2018-04-14T04:30:20.746Z,4.43
2018-04-14T04:32:49.288Z,4.90
2018-04-14T04:35:16.871Z,4.50
2018-04-14T04:37:44.524Z,7.73
2018-04-14T04:40:13.144Z,4.30
2018-04-14T04:42:41.728Z,4.53
2018-04-14T04:45:09.614Z,4.33
2018-04-14T04:47:43.026Z,5.33
2018-04-14T04:50:11.251Z,4.67
2018-04-14T04:52:39.152Z,5.13
2018-04-14T04:55:08.123Z,4.17
2018-04-14T04:57:35.920Z,6.33
2018-04-14T05:00:05.075Z,3.73
2018-04-14T05:02:34.636Z,4.60
2018-04-14T05:05:03.297Z,5.40
2018-04-14T05:07:31.092Z,6.43
2018-04-14T05:09:59.684Z,4.93
2018-04-14T05:12:28.347Z,3.77
2018-04-14T05:14:56.247Z,5.50
2018-04-14T05:17:25.072Z,5.80
2018-04-14T05:19:52.848Z,10.40
2018-04-14T05:22:20.702Z,6.17
2018-04-14T05:24:49.371Z,3.90
2018-04-14T05:27:17.978Z,4.07
2018-04-14T05:29:46.127Z,6.50
2018-04-14T05:32:13.910Z,5.30
2018-04-14T05:34:41.516Z,4.90
2018-04-14T05:37:09.415Z,8.47
2018-04-14T05:39:36.960Z,6.87
2018-04-14T05:42:04.737Z,4.33
2018-04-14T05:44:32.548Z,4.73
2018-04-14T05:47:01.551Z,4.87
2018-04-14T05:49:29.380Z,3.77
2018-04-14T05:51:56.919Z,6.53
2018-04-14T05:54:24.738Z,6.97
2018-04-14T05:56:52.302Z,4.53
2018-04-14T05:59:19.874Z,7.47
2018-04-14T06:01:47.420Z,5.63
2018-04-14T06:04:14.971Z,5.90
2018-04-14T06:06:42.660Z,5.00
2018-04-14T06:09:10.765Z,4.47
2018-04-14T06:11:39.315Z,4.87
2018-04-14T06:14:06.868Z,6.50
2018-04-14T06:16:34.685Z,4.80
2018-04-14T06:19:03.310Z,5.97
2018-04-14T06:21:31.132Z,3.63
2018-04-14T06:23:59.470Z,5.03
2018-04-14T06:26:27.892Z,9.47
2018-04-14T06:28:55.655Z,5.37
2018-04-14T06:31:23.204Z,7.17
2018-04-14T06:33:50.764Z,4.47
2018-04-14T06:36:18.664Z,5.30
2018-04-14T06:38:46.253Z,4.87
2018-04-14T06:41:14.603Z,7.47
2018-04-14T06:43:42.156Z,4.60
2018-04-14T06:46:09.760Z,6.87
2018-04-14T06:48:38.379Z,6.20
2018-04-14T06:51:06.480Z,5.80
2018-04-14T06:53:34.425Z,3.83
2018-04-14T06:56:02.266Z,4.00
2018-04-14T06:58:30.580Z,6.73
2018-04-14T07:00:58.416Z,6.73
2018-04-14T07:03:27.160Z,7.20
2018-04-14T07:05:54.972Z,5.57
2018-04-14T07:08:23.288Z,4.67
2018-04-14T07:10:51.269Z,4.87
2018-04-14T07:13:19.103Z,6.73
2018-04-14T07:15:47.688Z,6.37
2018-04-14T07:18:16.249Z,5.43
2018-04-14T07:20:44.221Z,4.83
2018-04-14T07:23:12.383Z,5.10
2018-04-14T07:25:40.300Z,6.40
2018-04-14T07:28:09.404Z,5.67
2018-04-14T07:30:38.096Z,8.23
2018-04-14T07:33:06.488Z,5.40
2018-04-14T07:35:34.871Z,6.67
2018-04-14T07:38:03.184Z,5.07
2018-04-14T07:40:30.760Z,4.13
2018-04-14T07:42:58.544Z,5.10
2018-04-14T07:45:26.097Z,8.90
2018-04-14T07:47:53.922Z,6.27
2018-04-14T07:50:22.270Z,5.33
2018-04-14T07:52:50.164Z,5.23
2018-04-14T07:55:18.689Z,8.23
2018-04-14T07:57:46.287Z,6.20
2018-04-14T08:00:13.922Z,5.90
2018-04-14T08:02:41.552Z,5.63
2018-04-14T08:05:10.244Z,8.43
2018-04-14T08:07:38.940Z,7.67
2018-04-14T08:10:07.725Z,7.33
2018-04-14T08:12:36.268Z,7.67
2018-04-14T08:15:03.875Z,7.07
2018-04-14T08:17:32.504Z,5.37
2018-04-14T08:20:00.067Z,6.63
2018-04-14T08:22:27.648Z,8.20
2018-04-14T08:24:55.592Z,6.40
2018-04-14T08:27:23.143Z,6.07
2018-04-14T08:29:51.864Z,7.07
2018-04-14T08:32:19.735Z,5.83
2018-04-14T08:34:47.454Z,6.03
2018-04-14T08:37:15.373Z,7.20
2018-04-14T08:39:42.944Z,5.53
2018-04-14T08:42:11.460Z,6.13
2018-04-14T08:44:39.014Z,7.90
2018-04-14T08:47:06.929Z,8.83
2018-04-14T08:49:35.430Z,8.17
2018-04-14T08:52:03.156Z,7.63
2018-04-14T08:54:31.051Z,7.70
2018-04-14T08:56:59.475Z,6.00
2018-04-14T08:59:27.412Z,6.60
2018-04-14T09:01:56.928Z,10.47
2018-04-14T09:04:24.797Z,11.50
2018-04-14T09:06:56.349Z,6.43
2018-04-14T09:09:24.322Z,6.67
2018-04-14T09:11:53.125Z,11.13
2018-04-14T09:14:21.903Z,8.10
2018-04-14T09:16:51.198Z,5.37
2018-04-14T09:19:19.901Z,7.63
2018-04-14T09:21:48.220Z,7.33
2018-04-14T09:24:16.056Z,9.17
2018-04-14T09:26:45.404Z,7.70
2018-04-14T09:29:13.228Z,5.40
2018-04-14T09:31:41.136Z,8.37
2018-04-14T09:34:10.970Z,9.27
2018-04-14T09:36:38.792Z,6.10
2018-04-14T09:39:07.482Z,6.10
2018-04-14T09:41:35.064Z,7.40
2018-04-14T09:44:02.917Z,7.33
2018-04-14T09:46:30.792Z,8.53
2018-04-14T09:48:59.480Z,9.17
2018-04-14T09:51:27.959Z,7.73
2018-04-14T09:53:55.761Z,9.60
2018-04-14T09:56:24.030Z,6.83
2018-04-14T09:58:52.319Z,7.47
2018-04-14T10:01:26.653Z,12.40
2018-04-14T10:03:54.480Z,7.70
2018-04-14T10:06:22.795Z,9.73
2018-04-14T10:08:50.677Z,7.90
2018-04-14T10:11:19.977Z,8.53
2018-04-14T10:13:47.812Z,9.17
2018-04-14T10:16:15.594Z,6.83
2018-04-14T10:18:44.253Z,8.00
2018-04-14T10:21:12.145Z,8.00
2018-04-14T10:23:40.470Z,8.67
2018-04-14T10:26:08.374Z,8.10
2018-04-14T10:28:35.927Z,8.83
2018-04-14T10:31:03.740Z,8.40
2018-04-14T10:33:32.320Z,14.90
2018-04-14T10:35:59.869Z,7.57
2018-04-14T10:38:27.431Z,8.27
2018-04-14T10:40:56.186Z,13.57
2018-04-14T10:43:24.196Z,9.23
2018-04-14T10:45:52.756Z,7.60
2018-04-14T10:48:21.132Z,6.20
2018-04-14T10:50:48.904Z,7.83
2018-04-14T10:53:16.728Z,7.57
2018-04-14T10:55:44.652Z,8.37
2018-04-14T10:58:12.717Z,8.93
2018-04-14T11:00:40.264Z,9.00
2018-04-14T11:03:08.080Z,9.47
2018-04-14T11:05:35.992Z,8.00
2018-04-14T11:08:04.409Z,10.47
2018-04-14T11:10:32.242Z,8.30
2018-04-14T11:13:01.333Z,10.13
2018-04-14T11:15:28.888Z,8.83
2018-04-14T11:17:56.447Z,10.37
2018-04-14T11:20:24.274Z,6.80
2018-04-14T11:22:52.113Z,9.37
2018-04-14T11:25:19.665Z,7.47
2018-04-14T11:27:47.488Z,8.60
2018-04-14T11:30:16.114Z,6.63
2018-04-14T11:32:43.732Z,6.60
2018-04-14T11:35:11.545Z,6.73
2018-04-14T11:37:40.229Z,7.00
2018-04-14T11:40:08.040Z,6.83
2018-04-14T11:42:37.192Z,6.20
2018-04-14T11:45:05.007Z,5.10
2018-04-14T11:47:33.592Z,5.97
2018-04-14T11:50:02.218Z,6.83
2018-04-14T11:52:30.070Z,8.27
2018-04-14T11:54:58.387Z,7.50
2018-04-14T11:57:26.449Z,8.20
2018-04-14T11:59:53.995Z,8.20
2018-04-14T12:02:21.869Z,6.03
2018-04-14T12:04:49.448Z,7.47
2018-04-14T12:07:17.288Z,9.00
2018-04-14T12:09:45.737Z,7.80
2018-04-14T12:12:13.568Z,7.80
2018-04-14T12:14:41.452Z,7.63
2018-04-14T12:17:09.418Z,8.67
2018-04-14T12:19:37.297Z,6.33
2018-04-14T12:22:05.138Z,8.60
2018-04-14T12:24:34.357Z,9.73
2018-04-14T12:27:02.240Z,8.33
2018-04-14T12:29:30.115Z,9.00
2018-04-14T12:31:57.983Z,7.40
2018-04-14T12:34:25.924Z,7.93
2018-04-14T12:36:54.623Z,10.63
2018-04-14T12:39:23.229Z,10.20
2018-04-14T12:41:51.299Z,9.80
2018-04-14T12:44:20.309Z,7.53
2018-04-14T12:46:48.185Z,7.37
2018-04-14T12:49:15.744Z,10.43
2018-04-14T12:51:43.619Z,10.67
2018-04-14T12:54:11.448Z,8.57
2018-04-14T12:56:39.012Z,10.07
2018-04-14T12:59:06.847Z,8.77
2018-04-14T13:01:34.408Z,10.87
2018-04-14T13:04:02.575Z,8.87
2018-04-14T13:06:30.543Z,11.27
2018-04-14T13:08:58.413Z,12.30
2018-04-14T13:11:26.643Z,9.30
2018-04-14T13:13:55.488Z,12.80
2018-04-14T13:16:23.424Z,11.87
2018-04-14T13:18:51.996Z,8.90
2018-04-14T13:21:19.885Z,9.17
2018-04-14T13:23:48.578Z,7.53
2018-04-14T13:26:18.035Z,9.57
2018-04-14T13:28:45.947Z,8.63
2018-04-14T13:31:13.864Z,8.10
2018-04-14T13:33:41.736Z,8.27
2018-04-14T13:36:09.287Z,8.90
2018-04-14T13:38:37.281Z,7.73
2018-04-14T13:41:05.076Z,6.63
2018-04-14T13:43:32.915Z,9.93
2018-04-14T13:46:01.200Z,9.23
2018-04-14T13:48:29.191Z,6.93
2018-04-14T13:50:57.108Z,6.63
2018-04-14T13:53:27.824Z,6.93
2018-04-14T13:56:01.123Z,6.43
2018-04-14T13:58:31.856Z,6.83
2018-04-14T14:01:01.548Z,7.83
2018-04-14T14:03:31.942Z,7.13
2018-04-14T14:06:02.466Z,8.60
2018-04-14T14:08:33.463Z,8.20
2018-04-14T14:11:04.170Z,10.90
2018-04-14T14:13:35.185Z,7.10
2018-04-14T14:16:06.289Z,8.27
2018-04-14T14:18:34.872Z,8.77
2018-04-14T14:21:03.535Z,7.23
2018-04-14T14:23:32.290Z,10.73
2018-04-14T14:26:03.289Z,5.83
2018-04-14T14:28:32.637Z,6.40
2018-04-14T14:31:00.508Z,11.40
2018-04-14T14:36:03.044Z,12.23
2018-04-14T14:38:30.875Z,9.93
2018-04-14T14:40:58.820Z,12.13
2018-04-14T14:43:26.439Z,7.40
2018-04-14T14:45:54.292Z,9.60
2018-04-14T14:48:24.410Z,12.93
2018-04-14T14:50:52.217Z,11.33
2018-04-14T14:53:20.156Z,12.50
2018-04-14T14:55:48.132Z,9.50
2018-04-14T14:58:16.107Z,11.97
2018-04-14T15:00:44.838Z,8.83
2018-04-14T15:03:12.887Z,7.63
2018-04-14T15:05:42.080Z,9.27
2018-04-14T15:08:10.896Z,13.20
2018-04-14T15:10:40.414Z,9.17
2018-04-14T15:13:08.707Z,9.83
2018-04-14T15:15:37.236Z,11.27
2018-04-14T15:18:05.120Z,12.50
2018-04-14T15:20:34.270Z,9.37
2018-04-14T15:23:02.963Z,8.77
2018-04-14T15:25:30.983Z,9.17
2018-04-14T15:27:59.576Z,8.23
2018-04-14T15:30:28.399Z,8.63
2018-04-14T15:32:56.904Z,12.60
2018-04-14T15:35:24.688Z,10.80
2018-04-14T15:37:56.176Z,9.70
2018-04-14T15:40:25.169Z,9.63
2018-04-14T15:42:53.860Z,8.10
2018-04-14T15:45:23.985Z,9.77
2018-04-14T15:47:52.681Z,9.00
2018-04-14T15:50:21.940Z,9.13
2018-04-14T15:52:49.753Z,7.43
2018-04-14T15:55:17.504Z,7.27
2018-04-14T15:57:45.296Z,10.50
2018-04-14T16:00:15.384Z,9.83
2018-04-14T16:02:43.284Z,8.90
2018-04-14T16:05:11.974Z,10.47
2018-04-14T16:07:40.663Z,10.10
2018-04-14T16:10:09.153Z,24.80
2018-04-14T16:12:37.536Z,134.07
2018-04-14T16:15:06.220Z,558.43
2018-04-14T16:17:34.642Z,1040.07
2018-04-14T16:20:02.617Z,556.37
2018-04-14T16:22:30.186Z,78.43
2018-04-14T16:24:58.120Z,268.87
2018-04-14T16:27:26.573Z,15.83
2018-04-14T16:29:54.476Z,23.80
2018-04-14T16:32:23.073Z,17.83
2018-04-14T16:34:51.758Z,43.30
2018-04-14T16:37:21.036Z,21.20
2018-04-14T16:39:48.598Z,18.40
2018-04-14T16:42:16.596Z,10.37
2018-04-14T16:44:45.940Z,11.10
2018-04-14T16:47:13.498Z,11.63
2018-04-14T16:49:41.440Z,8.67
2018-04-14T16:52:09.771Z,9.37
2018-04-14T16:54:37.406Z,9.20
2018-04-14T16:57:05.018Z,33.37
2018-04-14T16:59:32.575Z,56.97
2018-04-14T17:02:01.007Z,86.93
2018-04-14T17:04:30.004Z,91.60
2018-04-14T17:06:57.876Z,150.63
2018-04-14T17:09:26.601Z,45.90
2018-04-14T17:11:54.422Z,36.87
2018-04-14T17:14:21.986Z,13.37
2018-04-14T17:16:51.411Z,14.90
2018-04-14T17:19:19.732Z,16.13
2018-04-14T17:21:47.567Z,14.10
2018-04-14T17:24:16.184Z,17.27
2018-04-14T17:26:43.998Z,10.30
2018-04-14T17:29:12.647Z,9.07
2018-04-14T17:31:40.200Z,12.03
2018-04-14T17:34:08.082Z,326.40
2018-04-14T17:36:35.884Z,35.23
2018-04-14T17:39:04.607Z,151.23
2018-04-14T17:41:32.481Z,17.23
2018-04-14T17:44:01.176Z,298.83
2018-04-14T17:46:30.240Z,20.23
2018-04-14T17:48:58.040Z,14.50
2018-04-14T17:51:25.916Z,226.77
2018-04-14T17:53:54.504Z,25.37
2018-04-14T17:56:22.441Z,13.80
2018-04-14T17:58:50.856Z,10.30
2018-04-14T18:01:19.981Z,9.80
2018-04-14T18:03:47.787Z,10.30
2018-04-14T18:06:16.521Z,9.83
2018-04-14T18:08:45.119Z,11.50
2018-04-14T18:11:13.903Z,13.40
2018-04-14T18:13:42.433Z,11.13
2018-04-14T18:16:09.980Z,13.97
2018-04-14T18:18:37.548Z,10.03
2018-04-14T18:21:05.313Z,10.20
2018-04-14T18:23:33.251Z,9.63
2018-04-14T18:26:00.881Z,11.30
2018-04-14T18:28:28.942Z,8.20
2018-04-14T18:30:56.493Z,9.60
2018-04-14T18:33:24.332Z,12.50
2018-04-14T18:35:53.752Z,12.80
2018-04-14T18:38:22.094Z,9.37
2018-04-14T18:40:49.731Z,10.60
2018-04-14T18:43:17.702Z,11.23
2018-04-14T18:45:45.257Z,10.87
2018-04-14T18:48:12.812Z,13.80
2018-04-14T18:50:40.768Z,8.93
2018-04-14T18:53:09.416Z,10.27
2018-04-14T18:55:37.225Z,11.40
2018-04-14T18:58:06.017Z,9.80
2018-04-14T19:00:34.707Z,11.83
2018-04-14T19:03:03.333Z,9.43
2018-04-14T19:05:32.699Z,9.97
2018-04-14T19:08:01.397Z,11.87
2018-04-14T19:10:29.788Z,10.60
2018-04-14T19:12:58.412Z,11.93
2018-04-14T19:15:26.248Z,9.80
2018-04-14T19:17:53.867Z,11.23
2018-04-14T19:20:23.266Z,11.07
2018-04-14T19:22:52.141Z,9.93
2018-04-14T19:25:20.284Z,11.40
2018-04-14T19:27:48.876Z,10.83
2018-04-14T19:30:16.493Z,10.30
2018-04-14T19:32:44.453Z,11.67
2018-04-14T19:35:12.379Z,8.57
2018-04-14T19:37:40.447Z,9.77
2018-04-14T19:40:08.045Z,12.20
2018-04-14T19:42:35.597Z,11.93
2018-04-14T19:45:04.287Z,12.43
2018-04-14T19:47:32.644Z,10.50
2018-04-14T19:50:01.360Z,9.93
2018-04-14T19:52:29.948Z,11.73
2018-04-14T19:54:59.149Z,13.27
2018-04-14T19:57:27.834Z,11.13
2018-04-14T19:59:56.416Z,11.07
2018-04-14T20:02:23.979Z,11.70
2018-04-14T20:04:52.744Z,12.00
2018-04-14T20:07:20.287Z,10.43
2018-04-14T20:09:48.085Z,10.73
2018-04-14T20:12:16.723Z,11.23
2018-04-14T20:14:45.058Z,11.13
2018-04-14T20:17:12.660Z,12.00
2018-04-14T20:19:41.253Z,11.87
2018-04-14T20:22:10.260Z,12.77
2018-04-14T20:24:37.821Z,13.47
2018-04-14T20:27:05.710Z,10.77
2018-04-14T20:29:33.748Z,14.00
2018-04-14T20:32:02.341Z,14.13
2018-04-14T20:34:30.903Z,11.60
2018-04-14T20:36:58.907Z,11.40
2018-04-14T20:39:28.542Z,9.90
2018-04-14T20:41:56.420Z,11.30
2018-04-14T20:44:24.255Z,9.07
2018-04-14T20:46:52.843Z,16.53
2018-04-14T20:49:20.720Z,13.77
2018-04-14T20:51:49.339Z,11.43
2018-04-14T20:54:17.211Z,12.67
2018-04-14T20:56:45.186Z,14.77
2018-04-14T20:59:12.986Z,10.77
2018-04-14T21:01:40.896Z,11.37
2018-04-14T21:04:09.485Z,10.37
2018-04-14T21:06:38.182Z,10.80
2018-04-14T21:09:06.496Z,17.23
2018-04-14T21:11:34.499Z,20.60
2018-04-14T21:14:02.408Z,15.90
2018-04-14T21:16:31.564Z,14.07
2018-04-14T21:18:59.437Z,20.73
2018-04-14T21:21:27.044Z,12.50
2018-04-14T21:23:55.602Z,13.77
2018-04-14T21:26:23.160Z,17.90
2018-04-14T21:28:50.710Z,14.00
2018-04-14T21:31:18.595Z,11.30
2018-04-14T21:33:46.611Z,12.73
2018-04-14T21:36:15.228Z,14.33
2018-04-14T21:38:43.100Z,14.63
2018-04-14T21:41:11.026Z,16.83
2018-04-14T21:43:40.345Z,11.33
2018-04-14T21:46:08.965Z,10.03
2018-04-14T21:48:36.779Z,13.17
2018-04-14T21:51:05.491Z,12.23
2018-04-14T21:53:33.809Z,14.23
2018-04-14T21:56:01.733Z,10.80
2018-04-14T21:58:29.297Z,13.13
2018-04-14T22:00:57.928Z,13.47
2018-04-14T22:03:25.768Z,11.67
2018-04-14T22:05:54.379Z,15.47
2018-04-14T22:08:22.271Z,11.93
2018-04-14T22:10:50.098Z,9.97
2018-04-14T22:13:18.829Z,12.23
2018-04-14T22:15:46.504Z,11.87
2018-04-14T22:18:14.320Z,14.03
2018-04-14T22:20:42.424Z,17.10
2018-04-14T22:23:11.060Z,18.40
2018-04-14T22:25:39.036Z,18.27
2018-04-14T22:28:06.984Z,17.50
2018-04-14T22:30:34.998Z,17.93
2018-04-14T22:33:02.890Z,23.37
2018-04-14T22:35:32.190Z,23.07
2018-04-14T22:38:00.172Z,22.60
2018-04-14T22:40:28.799Z,21.43
2018-04-14T22:42:56.632Z,21.97
2018-04-14T22:45:25.172Z,16.10
2018-04-14T22:47:53.015Z,21.17
2018-04-14T22:50:20.648Z,16.33
2018-04-14T22:52:48.192Z,17.43
2018-04-14T22:55:16.010Z,15.03
2018-04-14T22:57:43.820Z,14.23
2018-04-14T23:00:11.379Z,12.00
2018-04-14T23:02:39.393Z,14.47
2018-04-14T23:05:07.228Z,16.03
2018-04-14T23:07:35.032Z,11.87
2018-04-14T23:10:02.810Z,12.47
2018-04-14T23:12:31.368Z,9.80
2018-04-14T23:14:58.917Z,12.53
2018-04-14T23:17:26.466Z,10.77
2018-04-14T23:19:56.648Z,14.47
2018-04-14T23:22:25.187Z,15.73
2018-04-14T23:24:52.739Z,11.03
2018-04-14T23:27:21.292Z,14.13
2018-04-14T23:29:49.917Z,13.97
2018-04-14T23:32:17.719Z,16.63
2018-04-14T23:34:45.273Z,15.50
2018-04-14T23:37:13.168Z,13.07
2018-04-14T23:39:41.824Z,15.57
2018-04-14T23:42:09.640Z,10.73
2018-04-14T23:44:39.251Z,16.43
2018-04-14T23:47:07.126Z,16.67
2018-04-14T23:49:35.747Z,18.43
2018-04-14T23:52:03.553Z,15.20
2018-04-14T23:54:31.367Z,13.67
2018-04-14T23:56:59.687Z,14.97
2018-04-14T23:59:27.612Z,12.47
